Flight Track Log - Related Links

Times and Time Zones

All times are in EDT time to prevent confusion due to time zone crossing. See the ASQ4272 flight status page for this flight to view local times or setup timezone preferences in your user account.

Time Position Orientation Groundspeed Altitude Reporting Facility
EDT Latitude Longitude Course Direction KTS MPH feet Rate Location/Type
Thu 12:25:38 PM 39.9219 -104.6672 85° East 197 227 6,900  Level Denver Center
Thu 12:26:40 PM 39.9492 -104.5800 68° East 261 300 8,800 1,500 Climbing Denver Center
Thu 12:27:42 PM 39.9525 -104.4753 88° East 289 333 10,000 581 Climbing Denver Center
Thu 12:28:00 PM 39.8667 -104.0146 90° East  Level FlightAware Approximate
Thu 12:28:44 PM 39.9472 -104.3406 93° East 348 400 10,000  Level Denver Center
Thu 12:29:00 PM 39.8667 -103.8512 90° East  Level FlightAware Approximate
Thu 12:29:46 PM 39.9344 -104.2167 98° East 349 402 11,100  Level Denver Center
Thu 12:30:00 PM 39.8862 -103.6914 85° East  Level FlightAware Approximate
Thu 12:30:49 PM 39.9208 -104.0892 98° East 352 405 13,200  Level Denver Center
Thu 12:31:00 PM 39.8970 -103.5286 85° East  Level FlightAware Approximate
Thu 12:31:51 PM 39.9067 -103.9503 98° East 359 413 15,400  Level Denver Center
Thu 12:32:53 PM 39.8919 -103.8203 98° East 361 415 17,500 1,790 Climbing Denver Center
Thu 12:33:55 PM 39.8853 -103.7025 94° East 351 404 19,100 1,984 Climbing Denver Center
Thu 12:34:57 PM 39.9039 -103.5503 81° East 356 410 21,600 2,226 Climbing Denver Center
Thu 12:35:59 PM 39.9186 -103.4253 81° East 355 409 23,700 1,984 Climbing Denver Center
Thu 12:37:01 PM 39.9319 -103.3011 82° East 350 403 25,700 1,742 Climbing Denver Center
Thu 12:38:03 PM 39.9458 -103.1783 82° East 345 397 27,300 1,258 Climbing Denver Center
Thu 12:39:05 PM 39.9597 -103.0508 82° East 353 406 28,300 1,065 Climbing Denver Center
Thu 12:40:07 PM 39.9772 -102.8914 82° East 371 427 29,500 1,065 Climbing Denver Center
Thu 12:41:09 PM 39.9922 -102.7556 82° East 376 433 30,500 720 Climbing Denver Center
Thu 12:42:12 PM 40.0072 -102.6153 82° East 389 448 31,000 240 Climbing Denver Center
Thu 12:43:14 PM 40.0219 -102.4711 82° East 415 478 31,000 290 Level Denver Center
Thu 12:44:16 PM 40.0403 -102.2944 82° East 436 502 31,600 774 Climbing Denver Center
Thu 12:45:18 PM 40.0567 -102.1436 82° East 437 503 32,600 1,065 Climbing Denver Center
Thu 12:46:20 PM 40.0728 -101.9700 83° East 434 499 33,800 1,016 Climbing Denver Center
Thu 12:47:22 PM 40.0878 -101.8233 82° East 429 494 34,700 581 Climbing Denver Center
Thu 12:48:24 PM 40.1053 -101.6506 82° East 429 494 35,000 145 Climbing Denver Center
Thu 12:49:26 PM 40.1208 -101.4961 82° East 447 514 35,000  Level Denver Center
Thu 12:50:28 PM 40.1381 -101.3069 83° East 464 534 35,000  Level Denver Center
Thu 12:51:30 PM 40.1539 -101.1436 83° East 471 542 35,000  Level Denver Center
Thu 12:52:44 PM 40.1711 -100.9517 83° East 477 549 35,000  Level Denver Center
Thu 12:53:47 PM 40.1908 -100.7331 83° East 477 549 35,000  Level Denver Center
Thu 12:54:49 PM 40.2039 -100.5681 84° East 477 549 35,000  Level Denver Center
Thu 12:55:51 PM 40.2069 -100.3744 89° East 480 552 35,000  Level Denver Center
Thu 12:56:53 PM 40.2100 -100.2061 89° East 482 555 35,000  Level Denver Center
Thu 12:57:55 PM 40.2125 -100.0106 89° East 482 555 35,000  Level Denver Center
Thu 12:59:09 PM 40.2150 -99.8269 89° East 482 555 35,000  Level Denver Center
Thu 01:00:12 PM 40.2172 -99.6206 89° East 476 548 35,000  Level Denver Center
Thu 01:01:14 PM 40.2175 -99.4492 90° East 475 547 35,000  Level Denver Center
Thu 01:01:52 PM 40.2189 -99.3481 89° East 474 545 35,000  Level Minneapolis Center
Thu 01:02:54 PM 40.2208 -99.1753 89° East 474 545 35,000  Level Minneapolis Center
Thu 01:03:56 PM 40.2225 -98.9675 89° East 474 545 35,000  Level Minneapolis Center
Thu 01:04:58 PM 40.2225 -98.7925 90° East 478 550 35,000  Level Minneapolis Center
Thu 01:06:00 PM 40.2225 -98.6172 90° East 480 552 35,000  Level Minneapolis Center
Thu 01:07:02 PM 40.2225 -98.4433 90° East 481 554 35,000  Level Minneapolis Center
Thu 01:08:04 PM 40.2214 -98.2678 90° East 481 554 35,000  Level Minneapolis Center
Thu 01:09:06 PM 40.2219 -98.0919 90° East 482 555 35,000  Level Minneapolis Center
Thu 01:10:09 PM 40.2206 -97.8808 90° East 482 555 35,000  Level Minneapolis Center
Thu 01:11:11 PM 40.2197 -97.7047 90° East 483 556 35,000  Level Minneapolis Center
Thu 01:12:13 PM 40.2183 -97.5281 91° East 483 556 35,000  Level Minneapolis Center
Thu 01:13:15 PM 40.2164 -97.3497 91° East 488 562 35,000  Level Minneapolis Center
Thu 01:14:17 PM 40.2147 -97.1497 91° East 489 563 35,000  Level Minneapolis Center
Thu 01:15:19 PM 40.2122 -96.9725 91° East 489 563 35,000  Level Minneapolis Center
Thu 01:16:21 PM 40.2097 -96.7914 91° East 495 570 35,000  Level Minneapolis Center
Thu 01:17:23 PM 40.2069 -96.6108 91° East 496 571 35,000  Level Minneapolis Center
Thu 01:18:25 PM 40.2042 -96.4297 91° East 498 573 35,000  Level Minneapolis Center
Thu 01:19:27 PM 40.2014 -96.2475 91° East 500 575 35,000  Level Minneapolis Center
Thu 01:20:29 PM 40.1994 -96.0308 91° East 500 575 35,000  Level Minneapolis Center
Thu 01:21:31 PM 40.1986 -95.8483 90° East 500 575 35,000  Level Minneapolis Center
Thu 01:22:34 PM 40.1978 -95.6675 90° East 500 575 35,000  Level Minneapolis Center
Thu 01:23:36 PM 40.1964 -95.4850 91° East 501 577 35,000  Level Minneapolis Center
Thu 01:24:38 PM 40.1936 -95.3019 91° East 503 579 35,000  Level Minneapolis Center
Thu 01:25:40 PM 40.1922 -95.0797 90° East 507 583 35,000  Level Minneapolis Center
Thu 01:26:42 PM 40.1892 -94.8931 91° East 510 587 35,000  Level Minneapolis Center
Thu 01:27:46 PM 40.1867 -94.6786 91° East 515 593 35,000  Level Kansas City Center
Thu 01:28:48 PM 40.1828 -94.4911 91° East 515 593 35,000  Level Kansas City Center
Thu 01:29:50 PM 40.1797 -94.3031 91° East 519 597 35,000  Level Kansas City Center
Thu 01:30:53 PM 40.1747 -94.1250 92° East 519 597 35,000  Level Kansas City Center
Thu 01:31:55 PM 40.1739 -93.9433 90° East 511 588 35,000  Level Kansas City Center
Thu 01:32:57 PM 40.1711 -93.7297 91° East 496 571 35,000  Level Kansas City Center
Thu 01:33:59 PM 40.1617 -93.5517 94° East 496 571 35,000  Level Kansas City Center
Thu 01:35:01 PM 40.1569 -93.3717 92° East 496 571 35,000  Level Kansas City Center
Thu 01:36:03 PM 40.1522 -93.1850 92° East 506 582 35,000  Level Kansas City Center
Thu 01:37:05 PM 40.1475 -92.9994 92° East 513 590 35,000  Level Kansas City Center
Thu 01:38:07 PM 40.1406 -92.7764 92° East 516 594 35,000  Level Kansas City Center
Thu 01:39:09 PM 40.1344 -92.5931 92° East 518 596 35,000  Level Kansas City Center
Thu 01:40:11 PM 40.1186 -92.4114 96° East 518 596 35,000  Level Kansas City Center
Thu 01:41:13 PM 40.0989 -92.1947 97° East 516 594 35,000  Level Kansas City Center
Thu 01:42:15 PM 40.0819 -92.0111 97° East 515 593 35,000  Level Kansas City Center
Thu 01:43:17 PM 40.0644 -91.8286 97° East 515 593 35,000  Level Kansas City Center
Thu 01:44:20 PM 40.0469 -91.6467 97° East 514 592 35,000  Level Kansas City Center
Thu 01:45:22 PM 40.0306 -91.4669 97° East 509 586 35,000  Level Kansas City Center
Thu 01:46:24 PM 40.0086 -91.2522 98° East 505 581 35,000  Level Kansas City Center
Thu 01:47:26 PM 39.9897 -91.0739 98° East 504 580 35,000  Level Kansas City Center
Thu 01:48:28 PM 39.9719 -90.8883 97° East 500 575 35,000  Level Kansas City Center
Thu 01:49:30 PM 39.9533 -90.7108 98° East 498 573 35,000  Level Kansas City Center
Thu 01:50:32 PM 39.9342 -90.5339 98° East 498 573 35,000  Level Kansas City Center
Thu 01:51:34 PM 39.9150 -90.3594 98° East 494 568 35,000  Level Kansas City Center
Thu 01:52:36 PM 39.8967 -90.1839 98° East 494 568 35,000  Level Kansas City Center
Thu 01:53:38 PM 39.8736 -89.9747 98° East 494 568 35,000  Level Kansas City Center
Thu 01:54:40 PM 39.8536 -89.7967 98° East 494 568 35,000 -576 Level Kansas City Center
Thu 01:55:43 PM 39.8400 -89.6161 96° East 500 575 33,800 -960 Descending Kansas City Center
Thu 01:56:45 PM 39.8414 -89.4367 89° East 501 577 33,000 -484 Descending Kansas City Center
Thu 01:57:47 PM 39.8419 -89.2569 90° East 500 575 32,800 -823 Descending Kansas City Center
Thu 01:58:49 PM 39.8419 -89.0400 90° East 500 575 31,300 -1,296 Descending Kansas City Center
Thu 01:59:52 PM 39.8422 -88.8564 90° East 506 582 30,100 -1,728 Descending Kansas City Center
Thu 02:00:54 PM 39.8428 -88.6786 90° East 498 573 27,700 -2,323 Descending Kansas City Center
Thu 02:01:56 PM 39.8428 -88.5061 90° East 487 560 25,300 -1,790 Descending Kansas City Center
Thu 02:02:58 PM 39.8425 -88.3406 90° East 474 545 24,000 -629 Descending Kansas City Center
Thu 02:04:00 PM 39.8408 -88.1428 91° East 461 531 24,000  Level Kansas City Center
Thu 02:04:56 PM 39.8383 -87.9917 91° East 461 531 24,000 -51 Level Indianapolis Center
Thu 02:05:58 PM 39.8375 -87.8200 90° East 469 540 23,900 -1,694 Descending Indianapolis Center
Thu 02:07:00 PM 39.8347 -87.6567 91° East 462 532 20,500 -2,952 Descending Indianapolis Center
Thu 02:08:02 PM 39.8328 -87.5036 91° East 434 499 17,800 -2,710 Descending Indianapolis Center
Thu 02:09:04 PM 39.8319 -87.3564 90° East 416 479 14,900 -2,661 Descending Indianapolis Center
Thu 02:10:06 PM 39.8294 -87.1819 91° East 405 466 12,300 -1,403 Descending Indianapolis Center
Thu 02:11:08 PM 39.8269 -87.0372 91° East 404 465 12,000 -145 Descending Indianapolis Center
Thu 02:12:10 PM 39.8250 -86.8947 91° East 402 463 12,000 -98 Level Indianapolis Center
Thu 02:13:11 PM 39.8225 -86.7589 91° East 385 443 11,800 -732 Descending Indianapolis Center
Thu 02:14:13 PM 39.8200 -86.6442 92° East 332 382 10,500 -1,548 Descending Indianapolis Center
Thu 02:15:15 PM 39.8178 -86.5331 91° East 311 358 8,600 -1,694 Descending Indianapolis Center
Thu 02:16:17 PM 39.8156 -86.4256 92° East 303 349 7,000 -968 Descending Indianapolis Center
Thu 02:17:19 PM 39.8089 -86.3261 95° East 275 316 6,600 -1,113 Descending Indianapolis Center
Thu 02:18:21 PM 39.8103 -86.2314 89° East 228 262 4,700 -1,742 Descending Indianapolis Center
Thu 02:19:23 PM 39.7725 -86.2125 159° South 183 211 3,000 -1,500 Descending Indianapolis Center
Thu 02:20:25 PM 39.7483 -86.2433 224° Southwest 146 168 1,600 -1,016 Descending Indianapolis Center
Thu 02:21:27 PM 39.7231 -86.2753 224° Southwest 131 151 900 -387 Descending Indianapolis Center
Thu 02:22:29 PM 39.6986 -86.3050 223° Southwest 129 148 800 -97 Descending Indianapolis Center

Login

Don't have an account? Register now (free) for customized features, flight alerts, and more!